createdAt,value
2024-01-05T00:00:29.138Z,98616.17
2024-01-05T00:10:52.872Z,98621.97
2024-01-05T00:20:56.668Z,98634.60
2024-01-05T00:31:00.814Z,98647.42
2024-01-05T00:41:06.114Z,98654.36
2024-01-05T00:51:09.895Z,98665.59
2024-01-05T01:01:13.848Z,98684.55
2024-01-05T01:11:20.402Z,98690.76
2024-01-05T01:21:24.153Z,98692.81
2024-01-05T01:31:30.525Z,98700.76
2024-01-05T01:41:34.860Z,98698.13
2024-01-05T01:51:39.349Z,98718.15
2024-01-05T02:01:47.176Z,98728.58
2024-01-05T02:11:51.042Z,98720.41
2024-01-05T02:21:57.944Z,98725.10
2024-01-05T02:32:01.646Z,98731.38
2024-01-05T02:42:06.549Z,98740.47
2024-01-05T02:52:12.465Z,98757.34
2024-01-05T03:02:16.745Z,98754.27
2024-01-05T03:12:22.178Z,98759.59
2024-01-05T03:22:28.665Z,98767.56
2024-01-05T03:32:34.735Z,98776.50
2024-01-05T03:42:39.566Z,98782.02
2024-01-05T03:52:43.346Z,98784.48
2024-01-05T04:02:48.198Z,98790.64
2024-01-05T04:12:52.202Z,98802.08
2024-01-05T04:22:56.068Z,98816.64
2024-01-05T04:33:00.980Z,98823.73
2024-01-05T04:43:05.853Z,98832.36
2024-01-05T04:53:09.580Z,98839.77
2024-01-05T05:03:17.419Z,98857.13
2024-01-05T05:13:21.416Z,98869.39
2024-01-05T05:23:26.172Z,98873.40
2024-01-05T05:33:30.691Z,98887.70
2024-01-05T05:43:34.743Z,98904.48
2024-01-05T05:53:39.083Z,98921.02
2024-01-05T06:03:46.718Z,98945.73
2024-01-05T06:13:50.733Z,98957.79
2024-01-05T06:23:55.407Z,98963.77
2024-01-05T06:34:02.963Z,98969.85
2024-01-05T06:44:09.515Z,98984.58
2024-01-05T06:54:14.947Z,98993.15
2024-01-05T07:04:18.897Z,99005.59
2024-01-05T07:14:24.884Z,99001.09
2024-01-05T07:24:28.795Z,99005.64
2024-01-05T07:34:33.518Z,99009.43
2024-01-05T07:44:37.605Z,99010.38
2024-01-05T07:54:42.248Z,99010.77
2024-01-05T08:04:47.085Z,99016.08
2024-01-05T08:14:51.704Z,99026.00
2024-01-05T08:24:55.982Z,99037.16
2024-01-05T08:34:59.877Z,99077.98
2024-01-05T08:45:06.262Z,99097.70
2024-01-05T08:55:10.428Z,99107.79
2024-01-05T09:05:14.750Z,99113.96
2024-01-05T09:15:19.540Z,99108.42
2024-01-05T09:25:23.812Z,99106.27
2024-01-05T09:35:27.638Z,99136.65
2024-01-05T09:45:33.818Z,99141.65
2024-01-05T09:55:37.671Z,99143.61
2024-01-05T10:05:41.614Z,99138.11
2024-01-05T10:16:04.315Z,99143.98
2024-01-05T10:26:17.319Z,99156.29
2024-01-05T10:36:25.908Z,99160.61
2024-01-05T10:46:33.511Z,99162.27
2024-01-05T10:56:43.202Z,99178.89
2024-01-05T11:06:47.521Z,99175.02
2024-01-05T11:16:57.002Z,99183.26
2024-01-05T11:27:00.917Z,99186.35
2024-01-05T11:37:09.530Z,99197.02
2024-01-05T11:47:49.733Z,99204.78
2024-01-05T11:57:53.696Z,99220.38
2024-01-05T12:07:57.949Z,99229.41
2024-01-05T12:18:16.572Z,99243.70
2024-01-05T12:28:24.148Z,99264.77
2024-01-05T12:38:30.168Z,99283.18
2024-01-05T12:48:35.515Z,99277.38
2024-01-05T12:58:44.098Z,99273.95
2024-01-05T13:08:48.862Z,99279.96
2024-01-05T13:18:52.774Z,99286.72
2024-01-05T13:28:56.917Z,99300.40
2024-01-05T13:39:02.345Z,99298.34
2024-01-05T13:49:06.353Z,99307.27
2024-01-05T13:59:10.825Z,99309.17
2024-01-05T14:09:14.673Z,99318.57
2024-01-05T14:19:19.153Z,99323.44
2024-01-05T14:29:26.013Z,99330.59
2024-01-05T14:39:31.163Z,99333.02
2024-01-05T14:49:35.711Z,99322.57
2024-01-05T14:59:39.821Z,99335.56
2024-01-05T15:09:45.643Z,99347.31
2024-01-05T15:19:51.907Z,99347.64
2024-01-05T15:29:56.241Z,99334.41
2024-01-05T15:40:00.454Z,99341.23
2024-01-05T15:50:06.064Z,99366.07
2024-01-05T16:00:10.664Z,99370.34
2024-01-05T16:10:18.497Z,99371.25
2024-01-05T16:20:22.635Z,99379.27
2024-01-05T16:30:28.983Z,99388.61
2024-01-05T16:40:32.880Z,99434.86
2024-01-05T16:50:36.744Z,99406.50
2024-01-05T17:00:40.889Z,99395.33
2024-01-05T17:10:47.896Z,99412.02
2024-01-05T17:20:55.274Z,99414.60
2024-01-05T17:30:59.890Z,99413.80
2024-01-05T17:41:04.147Z,99427.60
2024-01-05T17:51:09.269Z,99432.81
2024-01-05T18:01:14.224Z,99443.66
2024-01-05T18:11:25.872Z,99451.92
2024-01-05T18:21:29.691Z,99446.50
2024-01-05T18:31:37.186Z,99455.55
2024-01-05T18:41:41.894Z,99453.08
2024-01-05T18:51:45.831Z,99455.02
2024-01-05T19:01:49.829Z,99459.91
2024-01-05T19:11:53.782Z,99479.01
2024-01-05T19:21:59.887Z,99481.55
2024-01-05T19:32:04.830Z,99468.53
2024-01-05T19:42:08.844Z,99464.91
2024-01-05T19:52:13.902Z,99483.36
2024-01-05T20:02:18.411Z,99497.31
2024-01-05T20:12:22.244Z,99493.10
2024-01-05T20:22:26.484Z,99496.16
2024-01-05T20:32:30.679Z,99501.66
2024-01-05T20:42:34.625Z,99508.48
2024-01-05T20:52:39.305Z,99515.14
2024-01-05T21:02:43.681Z,99519.42
2024-01-05T21:12:47.895Z,99529.88
2024-01-05T21:22:54.479Z,99541.58
2024-01-05T21:32:59.000Z,99538.42
2024-01-05T21:43:03.522Z,99533.11
2024-01-05T21:53:08.582Z,99529.88
2024-01-05T22:03:13.784Z,99525.45
2024-01-05T22:13:18.163Z,99533.46
2024-01-05T22:23:22.500Z,99523.34
2024-01-05T22:33:28.546Z,99522.52
2024-01-05T22:43:32.450Z,99517.98
2024-01-05T22:53:37.159Z,99534.11
2024-01-05T23:03:42.882Z,99535.72
2024-01-05T23:13:46.707Z,99531.13
2024-01-05T23:23:51.965Z,99542.24
2024-01-05T23:34:08.632Z,99545.16
2024-01-05T23:44:19.978Z,99538.54
2024-01-05T23:54:24.388Z,99534.65
